Airfield :
LOGIN :

Register | Disclaimer

   EN    FR    IT 

 










Legend :    VFR   Marginal VFR   IFR   Intensive IFR   Very Intensive IFR
Visi :
Ceiling :
>= 8 km
>= 3000ft
5 to 8 km
1000 to 3000 ft
1500m to 5 km
500 to 1000 ft
800 to 1500m
200 to 500 ft
< 800m
< 200 ft
Symbols :   Thunderstorms  Fog  Heavy snow  Heavy precipitations  Wind > 20 kt
SIGMETs :     Misc.  Thunderstorms  Icing  Turbulence  Mountain Waves  Volcanic Ashes






- Airport Elevation : 7 ft
- IATA code : ESH


EGKA - Shoreham

CURRENT METAR :
  • 201950Z 11016KT 9999 BKN020 07/04 Q1008

EXPIRED METARs :
  • 201920Z 11015KT 9999 SCT021 07/04 Q1008
  • 201850Z 11017KT 9999 BKN023 08/04 Q1008
  • 201820Z 12014G24KT 9999 SCT022 08/03 Q1008
  • 201750Z 11015KT 9999 SCT024 08/03 Q1008
  • 201720Z 12013KT 9999 FEW024 07/03 Q1008

Expired Forecast.
ATIS : +44 1273 467 372



MET'MAP, your aeronautical weather chart ! - Copyright ORBIFLY December 2007 - Disclaimer

ORBIFLY MET'MAP TEAM :

Programming & Development : Alexandra Zaïnal
Concept & Development : Baudouin d'Aumeries
Co-Development & Prog : Marc-Olivier Méhu
Technical & hardware support : Manuel Goepfert

Contact : metmap@orbifly.com




SOURCES & CREDITS :

   NOAA